createdAt,value
2023-02-27T00:03:42.634Z,3.76
2023-02-27T00:08:48.201Z,3.78
2023-02-27T00:13:53.375Z,3.83
2023-02-27T00:19:04.719Z,3.72
2023-02-27T00:24:10.017Z,3.92
2023-02-27T00:29:15.538Z,3.90
2023-02-27T00:34:20.873Z,3.92
2023-02-27T00:39:26.170Z,3.89
2023-02-27T00:44:31.216Z,3.89
2023-02-27T00:49:36.608Z,3.92
2023-02-27T00:54:42.182Z,3.94
2023-02-27T00:59:47.558Z,3.95
2023-02-27T01:04:52.855Z,4.08
2023-02-27T01:09:59.350Z,4.26
2023-02-27T01:15:06.257Z,4.33
2023-02-27T01:20:13.665Z,4.27
2023-02-27T01:25:19.256Z,4.24
2023-02-27T01:30:24.866Z,4.23
2023-02-27T01:35:30.347Z,4.19
2023-02-27T01:40:40.842Z,4.25
2023-02-27T01:45:49.398Z,4.21
2023-02-27T01:51:10.317Z,4.22
2023-02-27T01:56:21.068Z,4.23
2023-02-27T02:01:27.747Z,4.15
2023-02-27T02:06:40.800Z,4.04
2023-02-27T02:11:46.130Z,3.97
2023-02-27T02:17:16.474Z,4.04
2023-02-27T02:22:48.281Z,4.12
2023-02-27T02:28:21.766Z,4.26
2023-02-27T02:33:53.065Z,4.57
2023-02-27T02:39:28.040Z,4.34
2023-02-27T02:44:59.965Z,4.38
2023-02-27T02:50:27.440Z,4.52
2023-02-27T02:56:04.440Z,4.85
2023-02-27T03:01:18.459Z,5.20
2023-02-27T03:06:31.793Z,5.32
2023-02-27T03:11:41.500Z,5.39
2023-02-27T03:16:53.760Z,5.41
2023-02-27T03:22:10.631Z,5.39
2023-02-27T03:27:19.089Z,5.44
2023-02-27T03:32:43.165Z,5.61
2023-02-27T03:38:23.804Z,5.55
2023-02-27T03:43:53.993Z,5.85
2023-02-27T03:49:01.363Z,5.82
2023-02-27T03:54:23.251Z,5.97
2023-02-27T03:59:28.424Z,5.95
2023-02-27T04:04:36.163Z,5.77
2023-02-27T04:10:18.813Z,6.05
2023-02-27T04:15:37.505Z,5.97
2023-02-27T04:20:57.943Z,5.93
2023-02-27T04:26:28.054Z,6.01
2023-02-27T04:32:00.934Z,6.02
2023-02-27T04:37:26.875Z,6.22
2023-02-27T04:42:39.903Z,6.24
2023-02-27T04:48:09.276Z,6.28
2023-02-27T04:53:28.804Z,6.11
2023-02-27T04:58:49.529Z,6.25
2023-02-27T05:11:57.032Z,6.60
2023-02-27T05:17:23.076Z,6.51
2023-02-27T05:22:57.725Z,6.86
2023-02-27T05:28:10.363Z,7.13
2023-02-27T05:33:32.979Z,6.99
2023-02-27T05:38:48.593Z,7.32
2023-02-27T05:43:58.725Z,7.47
2023-02-27T05:49:10.639Z,7.53
2023-02-27T05:54:26.214Z,7.41
2023-02-27T05:59:45.461Z,7.51
2023-02-27T06:04:49.698Z,7.32
2023-02-27T06:36:40.615Z,6.77
2023-02-27T06:41:46.746Z,6.54
2023-02-27T06:46:54.303Z,6.25
2023-02-27T06:51:58.917Z,6.02
2023-02-27T06:57:03.407Z,5.88
2023-02-27T07:02:13.574Z,5.98
2023-02-27T07:07:35.354Z,6.04
2023-02-27T07:12:42.645Z,6.16
2023-02-27T07:17:47.507Z,6.15
2023-02-27T07:22:54.186Z,6.16
2023-02-27T07:27:59.391Z,6.37
2023-02-27T07:33:03.696Z,6.08
2023-02-27T07:38:07.777Z,6.09
2023-02-27T07:43:12.026Z,6.33
2023-02-27T07:48:16.214Z,6.37
2023-02-27T07:53:20.325Z,6.25
2023-02-27T07:58:25.816Z,6.54
2023-02-27T08:03:30.389Z,6.51
2023-02-27T08:08:35.895Z,6.88
2023-02-27T08:13:59.532Z,7.22
2023-02-27T08:19:04.175Z,7.62
2023-02-27T08:24:08.478Z,7.52
2023-02-27T08:29:12.742Z,7.89
2023-02-27T08:34:17.130Z,8.33
2023-02-27T08:39:24.887Z,8.46
2023-02-27T08:44:29.064Z,8.50
2023-02-27T08:49:33.150Z,7.95
2023-02-27T08:54:38.065Z,7.75
2023-02-27T08:59:42.515Z,7.82
2023-02-27T09:04:49.724Z,7.75
2023-02-27T09:09:54.081Z,8.23
2023-02-27T09:14:58.227Z,8.70
2023-02-27T09:20:02.824Z,8.85
2023-02-27T09:25:07.387Z,9.20
2023-02-27T09:30:12.349Z,8.75
2023-02-27T09:35:16.717Z,8.87
2023-02-27T09:40:25.416Z,8.69
2023-02-27T09:45:33.755Z,8.96
2023-02-27T09:50:44.098Z,8.88
2023-02-27T09:55:49.277Z,9.08
2023-02-27T10:01:20.354Z,9.49
2023-02-27T10:06:40.112Z,9.66
2023-02-27T10:12:13.623Z,9.59
2023-02-27T10:17:23.040Z,9.29
2023-02-27T10:22:38.366Z,9.13
2023-02-27T10:27:47.166Z,9.34
2023-02-27T10:32:56.508Z,9.55
2023-02-27T10:38:07.141Z,9.67
2023-02-27T10:43:15.639Z,9.60
2023-02-27T10:48:20.814Z,9.26
2023-02-27T10:53:28.202Z,9.01
2023-02-27T10:58:37.652Z,9.05
2023-02-27T11:03:44.622Z,9.28
2023-02-27T11:09:27.805Z,9.53
2023-02-27T11:14:34.975Z,9.40
2023-02-27T11:19:40.751Z,9.39
2023-02-27T11:24:45.332Z,9.55
2023-02-27T12:08:25.405Z,8.90
2023-02-27T12:13:35.650Z,8.64
2023-02-27T12:18:50.340Z,8.80
2023-02-27T12:24:05.235Z,8.34
2023-02-27T12:29:27.759Z,8.52
2023-02-27T12:35:02.651Z,8.48
2023-02-27T12:40:09.672Z,8.37
2023-02-27T12:45:45.696Z,8.32
2023-02-27T12:50:51.763Z,7.64
2023-02-27T12:56:04.084Z,7.54
2023-02-27T13:01:29.552Z,7.75
2023-02-27T13:06:46.404Z,7.74
2023-02-27T13:12:05.585Z,7.35
2023-02-27T13:17:27.591Z,7.41
2023-02-27T13:22:50.391Z,7.75
2023-02-27T13:28:08.040Z,7.42
2023-02-27T13:33:31.695Z,7.23
2023-02-27T13:38:47.855Z,7.09
2023-02-27T13:43:53.605Z,7.44
2023-02-27T13:49:12.513Z,7.63
2023-02-27T13:54:32.120Z,7.24
2023-02-27T13:59:42.682Z,6.84
2023-02-27T14:04:54.040Z,6.90
2023-02-27T14:10:12.326Z,7.02
2023-02-27T14:15:19.499Z,7.11
2023-02-27T14:20:31.001Z,6.84
2023-02-27T14:25:48.391Z,6.61
2023-02-27T14:30:59.681Z,6.30
2023-02-27T14:36:08.707Z,6.74
2023-02-27T14:41:23.265Z,6.63
2023-02-27T14:46:30.258Z,6.79
2023-02-27T14:51:38.655Z,6.69
2023-02-27T14:56:54.883Z,6.37
2023-02-27T15:02:04.877Z,6.32
2023-02-27T15:07:25.336Z,6.29
2023-02-27T15:12:30.237Z,5.77
2023-02-27T15:17:42.740Z,5.71
2023-02-27T15:22:46.886Z,5.89
2023-02-27T15:27:51.307Z,5.80
2023-02-27T15:32:55.977Z,5.80
2023-02-27T15:38:03.060Z,5.97
2023-02-27T15:43:07.594Z,6.20
2023-02-27T15:48:17.675Z,6.17
2023-02-27T15:53:25.014Z,5.57
2023-02-27T15:58:38.366Z,5.15
2023-02-27T16:03:48.669Z,5.59
2023-02-27T16:09:05.496Z,5.76
2023-02-27T16:14:38.763Z,5.79
2023-02-27T16:26:31.504Z,5.94
2023-02-27T16:31:40.485Z,5.49
2023-02-27T16:36:55.856Z,5.26
2023-02-27T16:42:01.951Z,5.19
2023-02-27T16:47:06.148Z,4.80
2023-02-27T16:52:14.739Z,4.77
2023-02-27T16:57:20.670Z,4.96
2023-02-27T17:02:25.180Z,4.75
2023-02-27T17:07:31.166Z,5.03
2023-02-27T17:12:35.330Z,4.97
2023-02-27T17:17:40.069Z,4.84
2023-02-27T17:22:45.843Z,5.18
2023-02-27T17:27:51.053Z,5.52
2023-02-27T17:33:00.705Z,5.21
2023-02-27T17:38:10.797Z,5.26
2023-02-27T17:43:15.963Z,4.87
2023-02-27T17:48:20.164Z,4.75
2023-02-27T17:53:24.233Z,4.74
2023-02-27T17:58:28.526Z,4.65
2023-02-27T18:03:32.934Z,4.52
2023-02-27T18:08:37.557Z,4.55
2023-02-27T18:13:42.978Z,4.74
2023-02-27T18:18:47.138Z,4.59
2023-02-27T18:23:52.609Z,4.98
2023-02-27T18:29:00.760Z,4.93
2023-02-27T18:34:05.272Z,5.23
2023-02-27T18:39:09.501Z,5.38
2023-02-27T18:44:13.792Z,5.58
2023-02-27T18:49:24.958Z,5.76
2023-02-27T18:54:39.197Z,5.83
2023-02-27T18:59:48.176Z,5.84
2023-02-27T19:04:53.465Z,5.70
2023-02-27T19:09:58.961Z,5.25
2023-02-27T19:15:05.597Z,4.79
2023-02-27T19:20:15.011Z,4.56
2023-02-27T19:25:19.178Z,4.36
2023-02-27T19:30:27.613Z,4.16
2023-02-27T19:35:33.646Z,4.16
2023-02-27T19:40:38.502Z,4.16
2023-02-27T19:45:43.436Z,4.20
2023-02-27T19:50:53.270Z,4.13
2023-02-27T19:56:08.050Z,4.13
2023-02-27T20:01:13.547Z,4.37
2023-02-27T20:06:20.660Z,4.51
2023-02-27T20:11:25.373Z,4.69
2023-02-27T20:16:36.436Z,4.98
2023-02-27T20:21:41.181Z,4.71
2023-02-27T20:26:53.278Z,4.53
2023-02-27T20:32:02.610Z,5.07
2023-02-27T20:37:07.156Z,4.91
2023-02-27T20:42:11.891Z,4.61
2023-02-27T20:47:16.081Z,4.54
2023-02-27T20:52:20.190Z,4.56
2023-02-27T20:57:24.294Z,4.73
2023-02-27T21:02:28.601Z,4.66
2023-02-27T21:07:32.708Z,4.44
2023-02-27T21:12:36.879Z,4.38
2023-02-27T21:17:41.187Z,4.39
2023-02-27T21:22:45.335Z,4.48
2023-02-27T21:27:50.159Z,4.74
2023-02-27T21:32:55.570Z,4.98
2023-02-27T21:38:01.763Z,5.03
2023-02-27T21:43:06.442Z,4.94
2023-02-27T21:48:12.374Z,4.72
2023-02-27T21:53:16.656Z,4.94
2023-02-27T21:58:22.328Z,4.97
2023-02-27T22:03:34.982Z,4.33
2023-02-27T22:08:40.746Z,4.34
2023-02-27T22:13:45.722Z,4.56
2023-02-27T22:18:50.789Z,4.91
2023-02-27T22:23:55.752Z,4.55
2023-02-27T22:29:00.689Z,4.63
2023-02-27T22:34:08.956Z,4.85
2023-02-27T22:39:14.010Z,4.84
2023-02-27T22:44:19.444Z,4.32
2023-02-27T22:49:25.100Z,4.06
2023-02-27T22:54:31.042Z,4.00
2023-02-27T22:59:36.738Z,4.03
2023-02-27T23:04:42.321Z,4.21
2023-02-27T23:09:47.743Z,3.91
2023-02-27T23:14:53.337Z,4.15
2023-02-27T23:19:58.849Z,3.90
2023-02-27T23:25:10.239Z,3.89
2023-02-27T23:30:15.745Z,3.80
2023-02-27T23:35:27.187Z,3.87
2023-02-27T23:40:33.072Z,3.74
2023-02-27T23:45:38.810Z,3.77
2023-02-27T23:50:45.466Z,3.76
2023-02-27T23:55:50.965Z,3.59
